Terminal Aerodrome Forecast
Issued by NWS

Home | Current Version | Previous Version | Text Only | Print | Product List | Glossary On
Versions: 1 2 3 4 5 6 7 8 9 10 11 12
303
FTUS44 KEPZ 141732
TAFLRU
TAF
KLRU 141732Z 1418/1518 VRB04KT P6SM FEW150 SCT200
     FM142200 10012KT P6SM SCT120 BKN200
     FM150200 08008KT P6SM SCT100 BKN200
     FM151100 VRB04KT P6SM SKC=

USA.gov is the U.S. government's official web portal to all federal, state and local government web resources and services.